CMA CGM Vivaldi — V7ER3 — position and weather

sailwx.info

Track history (hours):
 
Tides and Currents Weather Stations Pressure Air Temp Water Temp Dewpoint Dewpoint Depression Visibility Wind Speed Wind Dir Waves Ship Positions

CMA CGM Vivaldi

Last reported at 2017-Oct-15 15:45 UTC. Time now 2017-Oct-17 23:51 UTC.
Position N 27°31' W 122°00'.

Length 334 m; draft 11.3 m.

Type: Ship. MMSI: 538005518.

Date/timePositionNaut miles runAvg speedWind from/ knotsBaromVisibWave heightAir tempDewpointWater temp
2017-Oct-15 15:45N 27°31' W 122°00'416.0
2017-Oct-15 15:29N 27°29' W 121°56'2415.9
2017-Oct-15 13:58N 27°19' W 121°31'1315.9
2017-Oct-15 13:10N 27°14' W 121°18'815.8
2017-Oct-15 12:39N 27°10' W 121°10'315.5
2017-Oct-15 12:29N 27°09' W 121°08'1115.5
2017-Oct-15 11:48N 27°04' W 120°57'1915.4
2017-Oct-15 10:35N 26°56' W 120°38'115.9
2017-Oct-15 10:30N 26°55' W 120°37'815.6
2017-Oct-15 10:00N 26°52' W 120°29'815.7
2017-Oct-15 09:30N 26°48' W 120°21'1215.7
2017-Oct-15 08:45N 26°44' W 120°09'815.7
2017-Oct-15 08:16N 26°41' W 120°01'415.8
2017-Oct-15 08:01N 26°39' W 119°57'6515.8
2017-Oct-15 03:56N 26°09' W 118°53'2015.6
2017-Oct-15 02:40N 26°00' W 118°34'9215.5
2017-Oct-14 20:42N 25°18' W 117°02'715.5
2017-Oct-14 20:16N 25°15' W 116°56'415.6
2017-Oct-14 20:00N 25°13' W 116°52'1515.8
2017-Oct-14 19:05N 25°05' W 116°39'415.7
2017-Oct-14 18:51N 25°03' W 116°35'  
Track history (hours):
 
Tides and Currents Weather Stations Pressure Air Temp Water Temp Dewpoint Dewpoint Depression Visibility Wind Speed Wind Dir Waves Ship Positions

CMA CGM Vivaldi

Last reported at 2017-Oct-15 15:45 UTC. Time now 2017-Oct-17 23:51 UTC.
Position N 27°31' W 122°00'.

Length 334 m; draft 11.3 m.

Type: Ship. MMSI: 538005518.

Date/timePositionNaut miles runAvg speedWind from/ knotsBaromVisibWave heightAir tempDewpointWater temp
2017-Oct-15 15:45N 27°31' W 122°00'416.0
2017-Oct-15 15:29N 27°29' W 121°56'2415.9
2017-Oct-15 13:58N 27°19' W 121°31'1315.9
2017-Oct-15 13:10N 27°14' W 121°18'815.8
2017-Oct-15 12:39N 27°10' W 121°10'315.5
2017-Oct-15 12:29N 27°09' W 121°08'1115.5
2017-Oct-15 11:48N 27°04' W 120°57'1915.4
2017-Oct-15 10:35N 26°56' W 120°38'115.9
2017-Oct-15 10:30N 26°55' W 120°37'815.6
2017-Oct-15 10:00N 26°52' W 120°29'815.7
2017-Oct-15 09:30N 26°48' W 120°21'1215.7
2017-Oct-15 08:45N 26°44' W 120°09'815.7
2017-Oct-15 08:16N 26°41' W 120°01'415.8
2017-Oct-15 08:01N 26°39' W 119°57'6515.8
2017-Oct-15 03:56N 26°09' W 118°53'2015.6
2017-Oct-15 02:40N 26°00' W 118°34'9215.5
2017-Oct-14 20:42N 25°18' W 117°02'715.5
2017-Oct-14 20:16N 25°15' W 116°56'415.6
2017-Oct-14 20:00N 25°13' W 116°52'1515.8
2017-Oct-14 19:05N 25°05' W 116°39'415.7
2017-Oct-14 18:51N 25°03' W 116°35'  

Dump ship's entire track history